CDT,Max TemperatureF,Mean TemperatureF,Min TemperatureF,Max Dew PointF,MeanDew PointF,Min DewpointF,Max Humidity, Mean Humidity, Min Humidity, Max Sea Level PressureIn, Mean Sea Level PressureIn, Min Sea Level PressureIn, Max VisibilityMiles, Mean VisibilityMiles, Min VisibilityMiles, Max Wind SpeedMPH, Mean Wind SpeedMPH, Max Gust SpeedMPH,PrecipitationIn, CloudCover, Events, WindDirDegrees
2013-9-1,84,70,57,64,61,55,100,81,48,29.84,29.79,29.71,10,7,0,16,3,23,0.41,4,Fog-Rain,266
2013-9-2,64,58,53,59,53,46,94,75,59,30.02,29.94,29.83,10,10,1,13,3,20,0.00,6,,336
2013-9-3,73,60,46,52,48,45,93,68,38,30.10,30.05,30.01,10,10,7,9,2,10,0.00,0,,261
2013-9-4,78,64,50,61,55,48,94,74,44,30.17,30.09,30.03,10,10,10,13,4,17,0.00,2,,301
2013-9-5,68,58,48,55,49,45,94,70,43,30.31,30.25,30.16,10,10,1,13,3,17,0.00,2,,82
2013-9-6,82,63,44,63,53,41,93,70,41,30.25,30.13,29.99,10,10,7,10,2,16,0.00,0,,196
2013-9-7,82,74,64,68,63,59,88,73,48,30.03,29.95,29.90,10,9,1,20,5,26,0.76,4,Rain,223
2013-9-8,69,66,62,61,59,55,88,82,68,30.10,30.05,29.98,10,10,4,15,9,23,0.02,7,Rain,62
2013-9-9,82,72,62,72,67,59,100,79,62,30.00,29.87,29.79,10,8,1,16,4,23,0.01,4,Rain,151
2013-9-10,91,84,77,68,60,55,65,48,29,29.94,29.90,29.81,10,10,10,17,11,25,0.00,0,,231
2013-9-11,78,71,64,64,61,59,94,72,51,30.11,30.01,29.95,10,10,5,16,6,21,0.14,2,Rain,251
2013-9-12,69,61,51,61,53,41,100,73,46,30.14,30.03,29.97,10,9,2,17,4,23,0.04,4,Rain,1
2013-9-13,60,51,42,45,40,36,93,67,39,30.23,30.18,30.15,10,10,5,12,6,18,0.00,0,,358
2013-9-14,68,54,39,46,42,37,93,67,37,30.18,30.11,30.02,10,10,2,12,2,9,0.00,0,,217
2013-9-15,60,56,50,54,49,43,94,83,67,30.25,30.07,30.01,10,9,3,12,2,17,0.35,7,Rain,44
2013-9-16,59,50,41,43,40,36,93,72,48,30.40,30.35,30.26,10,10,2,15,8,20,0.00,2,,12
2013-9-17,64,50,35,52,44,34,100,79,52,30.36,30.27,30.13,10,10,4,13,2,,0.00,2,,135
2013-9-18,77,64,51,63,57,48,94,77,57,30.12,30.01,29.91,10,10,3,13,4,20,0.32,5,Rain,172
2013-9-19,80,72,64,68,64,61,94,82,65,29.92,29.85,29.74,10,9,2,21,6,44,0.57,4,Rain,177
2013-9-20,69,63,57,63,57,50,94,79,59,29.80,29.77,29.71,10,10,2,18,8,24,0.04,4,Rain,251
2013-9-21,57,52,46,52,44,41,88,73,55,29.97,29.88,29.81,10,10,10,16,8,21,0.00,5,,304
2013-9-22,59,48,37,43,39,36,100,74,48,30.09,30.05,29.97,10,10,1,9,3,,0.00,0,,65
2013-9-23,60,48,35,46,41,36,100,81,55,30.15,30.10,30.07,10,9,1,10,2,,0.00,2,,110
2013-9-24,64,50,37,54,44,36,100,80,52,30.09,30.04,29.99,10,8,0,12,2,16,0.00,3,Fog,105
2013-9-25,64,52,39,55,45,37,100,83,59,30.02,30.00,29.98,10,6,0,10,2,,0.00,3,Fog,73
2013-9-26,71,56,41,61,46,37,100,80,38,30.11,30.07,30.01,10,5,0,10,2,,0.00,3,Fog,115
2013-9-27,75,58,42,55,48,41,100,77,36,30.18,30.13,30.08,10,6,0,13,2,16,0.00,3,Fog,131
2013-9-28,77,62,46,63,52,43,94,72,44,30.09,29.98,29.85,10,8,0,24,5,31,0.33,3,Fog-Rain,187
2013-9-29,66,55,44,50,44,36,94,71,32,30.07,30.02,29.95,10,10,4,10,5,,0.00,0,,304
2013-9-30,69,54,39,50,43,37,93,68,35,30.01,29.93,29.84,10,9,1,12,3,17,0.00,0,,172